Flight Track Log - Related Links

Times and Time Zones

All times are in EDT time to prevent confusion due to time zone crossing. See the AFL150 flight status page for this flight to view local times or setup timezone preferences in your user account.

Time Position Orientation Groundspeed Altitude Reporting Facility
EDT Latitude Longitude Course Direction KTS MPH feet Rate Location/Type
Tue 10:59:00 AM 58.7445 -39.0449 307° West  Level Estimated
Tue 11:00:00 AM 58.6839 -39.2440 240° Southwest  Level Estimated
Tue 11:01:00 AM 58.6229 -39.4424 240° Southwest  Level Estimated
Tue 11:02:00 AM 58.5617 -39.6401 239° Southwest  Level Estimated
Tue 11:03:00 AM 58.5001 -39.8372 239° Southwest  Level Estimated
Tue 11:04:00 AM 58.4383 -40.0335 239° Southwest  Level Estimated
Tue 11:05:00 AM 58.3761 -40.2291 239° Southwest  Level Estimated
Tue 11:06:00 AM 58.3137 -40.4240 239° Southwest  Level Estimated
Tue 11:07:00 AM 58.2509 -40.6183 239° Southwest  Level Estimated
Tue 11:08:00 AM 58.1879 -40.8119 238° Southwest  Level Estimated
Tue 11:09:00 AM 58.1245 -41.0047 238° Southwest  Level Estimated
Tue 11:10:00 AM 58.0609 -41.1969 238° Southwest  Level Estimated
Tue 11:11:00 AM 57.9970 -41.3884 238° Southwest  Level Estimated
Tue 11:12:00 AM 57.9328 -41.5793 238° Southwest  Level Estimated
Tue 11:13:00 AM 57.8683 -41.7694 238° Southwest  Level Estimated
Tue 11:14:00 AM 57.8036 -41.9589 237° Southwest  Level Estimated
Tue 11:15:00 AM 57.7385 -42.1476 237° Southwest  Level Estimated
Tue 11:16:00 AM 57.6732 -42.3357 237° Southwest  Level Estimated
Tue 11:17:00 AM 57.6076 -42.5232 237° Southwest  Level Estimated
Tue 11:18:00 AM 57.5417 -42.7099 237° Southwest  Level Estimated
Tue 11:19:00 AM 57.4755 -42.8960 237° Southwest  Level Estimated
Tue 11:20:00 AM 57.4091 -43.0814 236° Southwest  Level Estimated
Tue 11:21:00 AM 57.3424 -43.2661 236° Southwest  Level Estimated
Tue 11:22:00 AM 57.2754 -43.4501 236° Southwest  Level Estimated
Tue 11:23:00 AM 57.2082 -43.6335 236° Southwest  Level Estimated
Tue 11:24:00 AM 57.1407 -43.8162 236° Southwest  Level Estimated
Tue 11:25:00 AM 57.0729 -43.9983 236° Southwest  Level Estimated
Tue 11:26:00 AM 57.0049 -44.1797 235° Southwest  Level Estimated
Tue 11:27:00 AM 56.9366 -44.3604 235° Southwest  Level Estimated
Tue 11:28:00 AM 56.8681 -44.5405 235° Southwest  Level Estimated
Tue 11:29:00 AM 56.7993 -44.7198 235° Southwest  Level Estimated
Tue 11:30:00 AM 56.7302 -44.8986 235° Southwest  Level Estimated
Tue 11:31:00 AM 56.6609 -45.0767 235° Southwest  Level Estimated
Tue 11:32:00 AM 56.5913 -45.2541 235° Southwest  Level Estimated
Tue 11:33:00 AM 56.5215 -45.4309 234° Southwest  Level Estimated
Tue 11:34:00 AM 56.4514 -45.6070 234° Southwest  Level Estimated
Tue 11:35:00 AM 56.3810 -45.7825 234° Southwest  Level Estimated
Tue 11:36:00 AM 56.3105 -45.9573 234° Southwest  Level Estimated
Tue 11:37:00 AM 56.2397 -46.1315 234° Southwest  Level Estimated
Tue 11:38:00 AM 56.1686 -46.3050 234° Southwest  Level Estimated
Tue 11:39:00 AM 56.0973 -46.4779 234° Southwest  Level Estimated
Tue 11:40:00 AM 56.0257 -46.6501 233° Southwest  Level Estimated
Tue 11:41:00 AM 55.9540 -46.8217 233° Southwest  Level Estimated
Tue 11:42:00 AM 55.8820 -46.9927 233° Southwest  Level Estimated
Tue 11:43:00 AM 55.8097 -47.1631 233° Southwest  Level Estimated
Tue 11:44:00 AM 55.7372 -47.3328 233° Southwest  Level Estimated
Tue 11:45:00 AM 55.6645 -47.5019 233° Southwest  Level Estimated
Tue 11:46:00 AM 55.5915 -47.6703 233° Southwest  Level Estimated
Tue 11:47:00 AM 55.5183 -47.8381 232° Southwest  Level Estimated
Tue 11:48:00 AM 55.4449 -48.0053 232° Southwest  Level Estimated
Tue 11:49:00 AM 55.3713 -48.1719 232° Southwest  Level Estimated
Tue 11:50:00 AM 55.2974 -48.3379 232° Southwest  Level Estimated
Tue 11:51:00 AM 55.2233 -48.5032 232° Southwest  Level Estimated
Tue 11:52:00 AM 55.1490 -48.6679 232° Southwest  Level Estimated
Tue 11:53:00 AM 55.0745 -48.8321 232° Southwest  Level Estimated
Tue 11:54:00 AM 54.9997 -48.9955 231° Southwest  Level Estimated
Tue 11:55:00 AM 54.9248 -49.1584 231° Southwest  Level Estimated
Tue 11:56:00 AM 54.8496 -49.3207 231° Southwest  Level Estimated
Tue 11:57:00 AM 54.7742 -49.4824 231° Southwest  Level Estimated
Tue 11:58:00 AM 54.6985 -49.6435 231° Southwest  Level Estimated
Tue 11:59:00 AM 54.6227 -49.8040 231° Southwest  Level Estimated
Tue 12:00:00 PM 54.5467 -49.9638 231° Southwest  Level Estimated
Tue 12:01:00 PM 54.4704 -50.1231 231° Southwest  Level Estimated
Tue 12:02:00 PM 54.3940 -50.2818 230° Southwest  Level Estimated
Tue 12:03:00 PM 54.3173 -50.4399 230° Southwest  Level Estimated
Tue 12:04:00 PM 54.2404 -50.5974 230° Southwest  Level Estimated
Tue 12:05:00 PM 54.1633 -50.7544 230° Southwest  Level Estimated
Tue 12:06:00 PM 54.0860 -50.9107 230° Southwest  Level Estimated
Tue 12:07:00 PM 54.0085 -51.0665 230° Southwest  Level Estimated
Tue 12:08:00 PM 53.9309 -51.2216 230° Southwest  Level Estimated
Tue 12:09:00 PM 53.8530 -51.3763 230° Southwest  Level Estimated
Tue 12:10:00 PM 53.7749 -51.5303 229° Southwest  Level Estimated
Tue 12:11:00 PM 53.6966 -51.6837 229° Southwest  Level Estimated
Tue 12:12:00 PM 53.6181 -51.8366 229° Southwest  Level Estimated
Tue 12:13:00 PM 53.5395 -51.9889 229° Southwest  Level Estimated
Tue 12:14:00 PM 53.4606 -52.1407 229° Southwest  Level Estimated
Tue 12:15:00 PM 53.3805 -52.2938 229° Southwest  Level Estimated
Tue 12:16:00 PM 53.3003 -52.4463 229° Southwest  Level Estimated
Tue 12:17:00 PM 53.2198 -52.5983 229° Southwest  Level Estimated
Tue 12:18:00 PM 53.1392 -52.7497 228° Southwest  Level Estimated
Tue 12:19:00 PM 53.0583 -52.9005 228° Southwest  Level Estimated
Tue 12:20:00 PM 52.9773 -53.0508 228° Southwest  Level Estimated
Tue 12:21:00 PM 52.8961 -53.2004 228° Southwest  Level Estimated
Tue 12:21:27 PM 59.5667 -56.5167 227° Southwest 430 495 34,000  Level Gander Center
Tue 12:22:00 PM 52.8147 -53.3496 228° Southwest  Level Estimated
Tue 12:22:27 PM 59.5167 -56.6500 234° Southwest 430 495 34,000  Level Gander Center
Tue 12:23:00 PM 52.7331 -53.4981 228° Southwest  Level Estimated
Tue 12:23:27 PM 59.4167 -56.8333 223° Southwest 430 495 34,000  Level Gander Center
Tue 12:24:00 PM 52.6513 -53.6462 228° Southwest  Level Estimated
Tue 12:24:27 PM 59.3333 -56.9667 219° Southwest 430 495 34,000  Level Gander Center
Tue 12:25:00 PM 52.5694 -53.7936 228° Southwest  Level Estimated
Tue 12:25:27 PM 59.2333 -57.1167 218° Southwest 420 483 34,000  Level Gander Center
Tue 12:26:00 PM 52.4873 -53.9406 227° Southwest  Level Estimated
Tue 12:26:27 PM 59.1500 -57.2167 212° Southwest 430 495 34,000  Level Gander Center
Tue 12:27:27 PM 59.0500 -57.3667 218° Southwest 430 495 34,000  Level Gander Center
Tue 12:28:27 PM 58.9500 -57.4667 207° Southwest 420 483 34,000  Level Gander Center
Tue 12:29:27 PM 58.8500 -57.6167 218° Southwest 430 495 34,000  Level Gander Center
Tue 12:30:27 PM 58.7500 -57.7500 215° Southwest 420 483 34,000  Level Gander Center
Tue 12:31:27 PM 58.6500 -57.8500 207° Southwest 430 495 34,000  Level Gander Center
Tue 12:32:27 PM 58.5667 -57.9833 220° Southwest 420 483 34,000  Level Gander Center
Tue 12:33:27 PM 58.4667 -58.1333 218° Southwest 420 483 34,000  Level Gander Center
Tue 12:34:27 PM 58.3500 -58.2333 204° Southwest 420 483 34,000  Level Gander Center
Tue 12:35:27 PM 58.2500 -58.3667 215° Southwest 420 483 34,000  Level Gander Center
Tue 12:36:27 PM 58.1500 -58.5000 215° Southwest 430 495 34,000  Level Gander Center
Tue 12:37:27 PM 58.0667 -58.6000 212° Southwest 430 495 34,000  Level Gander Center
Tue 12:38:27 PM 57.9667 -58.7333 215° Southwest 430 495 34,000  Level Gander Center
Tue 12:39:27 PM 57.8667 -58.8667 215° Southwest 430 495 34,000  Level Gander Center
Tue 12:40:27 PM 57.7667 -58.9667 208° Southwest 430 495 34,000  Level Gander Center
Tue 12:41:27 PM 57.6667 -59.1000 216° Southwest 430 495 34,000  Level Gander Center
Tue 12:42:27 PM 57.5500 -59.2333 212° Southwest 430 495 34,000  Level Gander Center
Tue 12:43:27 PM 57.4500 -59.3333 208° Southwest 430 495 34,000  Level Gander Center
Tue 12:44:27 PM 57.3500 -59.4500 212° Southwest 430 495 34,000  Level Gander Center
Tue 12:45:27 PM 57.2667 -59.5833 221° Southwest 430 495 34,000  Level Gander Center
Tue 12:46:27 PM 57.1500 -59.6833 205° Southwest 430 495 34,000  Level Gander Center
Tue 12:47:27 PM 57.0500 -59.8167 216° Southwest 430 495 34,000  Level Gander Center
Tue 12:48:27 PM 56.9500 -59.9333 212° Southwest 430 495 34,000  Level Gander Center
Tue 12:49:27 PM 56.8500 -60.0667 216° Southwest 430 495 34,000  Level Gander Center
Tue 12:50:27 PM 56.7333 -60.1500 201° Southwest 420 483 34,000  Level Gander Center
Tue 12:51:27 PM 56.6333 -60.2833 216° Southwest 430 495 34,000  Level Gander Center
Tue 12:52:27 PM 56.5333 -60.4000 213° Southwest 430 495 34,000  Level Gander Center
Tue 12:53:27 PM 56.4333 -60.5000 209° Southwest 430 495 34,000  Level Gander Center
Tue 12:54:27 PM 56.3333 -60.6167 213° Southwest 430 495 34,000  Level Gander Center
Tue 12:55:27 PM 56.2167 -60.7500 212° Southwest 440 506 34,000  Level Gander Center
Tue 12:56:27 PM 56.1167 -60.8667 213° Southwest 440 506 34,000  Level Gander Center
Tue 12:57:27 PM 56.0167 -60.9500 205° Southwest 440 506 34,000  Level Gander Center
Tue 12:58:27 PM 55.9000 -61.0667 209° Southwest 440 506 34,000  Level Gander Center
Tue 12:59:27 PM 55.8000 -61.2000 217° Southwest 430 495 34,000  Level Gander Center
Tue 01:00:27 PM 55.7000 -61.2833 205° Southwest 440 506 34,000  Level Gander Center
Tue 01:01:27 PM 55.6000 -61.4000 213° Southwest 440 506 34,000  Level Gander Center
Tue 01:02:27 PM 55.5000 -61.5167 213° Southwest 440 506 34,000  Level Gander Center
Tue 01:03:27 PM 55.3833 -61.6333 210° Southwest 440 506 34,000  Level Gander Center
Tue 01:04:27 PM 55.2833 -61.7167 205° Southwest 430 495 34,000  Level Gander Center
Tue 01:05:27 PM 55.1833 -61.8333 214° Southwest 430 495 34,000  Level Gander Center
Tue 01:06:27 PM 55.0833 -61.9500 214° Southwest 430 495 34,000  Level Gander Center
Tue 01:07:27 PM 54.9833 -62.0333 206° Southwest 430 495 34,000  Level Gander Center
Tue 01:08:27 PM 54.8667 -62.1500 210° Southwest 430 495 34,000  Level Gander Center
Tue 01:09:27 PM 54.7833 -62.2333 210° Southwest 430 495 34,000  Level Gander Center
Tue 01:10:27 PM 54.6667 -62.3500 210° Southwest 430 495 34,000  Level Gander Center
Tue 01:11:27 PM 54.5667 -62.4667 214° Southwest 420 483 34,000  Level Gander Center
Tue 01:12:27 PM 54.4667 -62.5833 214° Southwest 430 495 34,000  Level Gander Center
Tue 01:13:27 PM 54.3500 -62.6667 203° Southwest 430 495 34,000  Level Gander Center
Tue 01:14:27 PM 54.2333 -62.7667 207° Southwest 430 495 34,000  Level Gander Center
Tue 01:15:27 PM 54.1500 -62.8500 210° Southwest 430 495 34,000  Level Gander Center
Tue 01:16:27 PM 54.0500 -62.9667 214° Southwest 430 495 34,000  Level Gander Center
Tue 01:17:27 PM 53.9333 -63.0667 207° Southwest 430 495 34,000  Level Gander Center
Tue 01:18:27 PM 53.8333 -63.1500 206° Southwest 430 495 34,000  Level Gander Center
Tue 01:19:27 PM 53.7333 -63.2667 215° Southwest 430 495 34,000  Level Gander Center
Tue 01:20:27 PM 53.6333 -63.3667 211° Southwest 430 495 34,000  Level Gander Center
Tue 01:21:27 PM 53.5167 -63.4500 203° Southwest 430 495 34,000  Level Gander Center
Tue 01:22:27 PM 53.4167 -63.5500 211° Southwest 430 495 34,000  Level Gander Center
Tue 01:23:27 PM 53.3000 -63.6667 211° Southwest 430 495 34,000  Level Gander Center
Tue 01:24:27 PM 53.2000 -63.7333 202° Southwest 430 495 34,000  Level Gander Center
Tue 01:25:27 PM 53.1000 -63.8500 215° Southwest 430 495 34,000  Level Gander Center
Tue 01:26:27 PM 53.0000 -63.9500 211° Southwest 430 495 34,000  Level Gander Center
Tue 01:27:27 PM 52.9000 -64.0333 207° Southwest 430 495 34,000  Level Gander Center
Tue 01:28:27 PM 52.7833 -64.1333 207° Southwest 430 495 34,000  Level Gander Center
Tue 01:29:27 PM 52.6833 -64.2000 202° Southwest 430 495 34,000  Level Gander Center
Tue 01:30:27 PM 52.5667 -64.3167 211° Southwest 430 495 34,000  Level Gander Center
Tue 01:31:27 PM 52.4667 -64.4167 211° Southwest 430 495 34,000  Level Gander Center
Tue 01:32:27 PM 52.3667 -64.5167 211° Southwest 430 495 34,000  Level Gander Center
Tue 01:33:27 PM 52.2667 -64.5833 202° Southwest 430 495 34,000  Level Gander Center
Tue 01:34:27 PM 52.1667 -64.6833 212° Southwest 430 495 34,000  Level Gander Center
Tue 01:35:01 PM 52.0833 -64.7500 206° Southwest 430 495 34,000 191 Level Moncton Center
Tue 01:36:01 PM 51.9833 -64.8333 207° Southwest 420 483 34,300 850 Climbing Moncton Center
Tue 01:37:01 PM 51.8833 -64.9167 207° Southwest 420 483 35,700 850 Climbing Moncton Center
Tue 01:38:01 PM 51.7833 -65.0000 207° Southwest 410 472 36,000 150 Climbing Moncton Center
Tue 01:39:01 PM 51.6833 -65.0667 202° Southwest 420 483 36,000  Level Moncton Center
Tue 01:40:01 PM 51.5833 -65.1833 216° Southwest 420 483 36,000  Level Moncton Center
Tue 01:41:01 PM 51.4833 -65.2500 203° Southwest 420 483 36,000  Level Moncton Center
Tue 01:42:01 PM 51.3667 -65.3333 204° Southwest 420 483 36,000  Level Moncton Center
Tue 01:43:01 PM 51.2667 -65.4333 212° Southwest 420 483 36,000  Level Moncton Center
Tue 01:44:01 PM 51.1667 -65.5167 208° Southwest 420 483 36,000  Level Moncton Center
Tue 01:45:01 PM 51.0667 -65.6000 208° Southwest 420 483 36,000  Level Moncton Center
Tue 01:46:01 PM 50.9500 -65.6667 200° South 420 483 36,000  Level Moncton Center
Tue 01:47:01 PM 50.8333 -65.7833 212° Southwest 420 483 36,000  Level Moncton Center
Tue 01:48:01 PM 50.7333 -65.8500 203° Southwest 420 483 36,000  Level Moncton Center
Tue 01:49:01 PM 50.6333 -65.9500 212° Southwest 420 483 36,000  Level Moncton Center
Tue 01:50:01 PM 50.5333 -66.0333 208° Southwest 410 472 36,000  Level Moncton Center
Tue 01:51:01 PM 50.4333 -66.1000 203° Southwest 420 483 36,000  Level Moncton Center
Tue 01:52:01 PM 50.3333 -66.1833 208° Southwest 420 483 36,000  Level Moncton Center
Tue 01:53:01 PM 50.2333 -66.2500 203° Southwest 410 472 36,000  Level Moncton Center
Tue 01:54:27 PM 50.0667 -66.3667 204° Southwest 410 472 36,000  Level Gander Center
Tue 01:55:27 PM 49.9667 -66.4000 192° South 410 472 36,000  Level Gander Center
Tue 01:56:01 PM 49.9167 -66.4500 213° Southwest 410 472 36,000  Level Moncton Center
Tue 01:57:01 PM 49.7833 -66.5167 198° South 420 483 36,000  Level Moncton Center
Tue 01:58:01 PM 49.6833 -66.5667 198° South 420 483 36,000  Level Moncton Center
Tue 01:59:01 PM 49.5667 -66.6500 205° Southwest 420 483 36,000  Level Moncton Center
Tue 02:00:01 PM 49.4667 -66.6833 192° South 420 483 36,000  Level Moncton Center
Tue 02:01:01 PM 49.3500 -66.7667 205° Southwest 420 483 36,000  Level Moncton Center
Tue 02:02:01 PM 49.2500 -66.8000 192° South 420 483 36,000  Level Moncton Center
Tue 02:03:01 PM 49.1333 -66.8833 205° Southwest 420 483 36,000  Level Moncton Center
Tue 02:04:01 PM 49.0167 -66.9167 191° South 420 483 36,000  Level Moncton Center
Tue 02:05:01 PM 48.9167 -67.0000 209° Southwest 420 483 36,000  Level Moncton Center
Tue 02:06:01 PM 48.7833 -67.0333 189° South 420 483 36,000  Level Moncton Center
Tue 02:07:01 PM 48.6833 -67.1167 209° Southwest 420 483 36,000  Level Moncton Center
Tue 02:08:01 PM 48.5833 -67.1833 204° Southwest 410 472 36,000  Level Moncton Center
Tue 02:09:01 PM 48.4667 -67.2333 196° South 410 472 36,000  Level Moncton Center
Tue 02:10:01 PM 48.3667 -67.2667 192° South 420 483 36,000  Level Moncton Center
Tue 02:11:01 PM 48.2500 -67.3333 201° Southwest 420 483 36,000  Level Moncton Center
Tue 02:12:01 PM 48.1500 -67.3833 198° South 420 483 36,000  Level Moncton Center
Tue 02:13:01 PM 48.0333 -67.4500 201° Southwest 420 483 36,000  Level Moncton Center
Tue 02:14:01 PM 47.9333 -67.5167 204° Southwest 410 472 36,000  Level Moncton Center
Tue 02:15:01 PM 47.8000 -67.5667 194° South 410 472 36,000  Level Moncton Center
Tue 02:16:01 PM 47.7000 -67.6333 204° Southwest 410 472 36,000  Level Moncton Center
Tue 02:17:01 PM 47.6000 -67.6667 193° South 410 472 36,000  Level Moncton Center
Tue 02:18:01 PM 47.5000 -67.7500 209° Southwest 400 460 36,000  Level Moncton Center
Tue 02:19:01 PM 47.4000 -67.8333 209° Southwest 400 460 36,000  Level Moncton Center
Tue 02:19:46 PM 47.3564 -67.8842 218° Southwest 403 464 36,000  Level Boston Center
Tue 02:20:48 PM 47.2597 -67.9656 210° Southwest 402 463 36,000  Level Boston Center
Tue 02:21:47 PM 47.1633 -68.0481 210° Southwest 402 463 36,000  Level Boston Center
Tue 02:22:48 PM 47.0658 -68.1303 210° Southwest 403 464 36,000  Level Boston Center
Tue 02:23:52 PM 46.9633 -68.2183 210° Southwest 403 464 36,000  Level Boston Center
Tue 02:24:52 PM 46.8653 -68.3031 211° Southwest 408 470 36,000  Level Boston Center
Tue 02:25:53 PM 46.7664 -68.3853 210° Southwest 408 470 36,000  Level Boston Center
Tue 02:26:56 PM 46.6667 -68.4656 209° Southwest 408 470 36,000  Level Boston Center
Tue 02:27:57 PM 46.5681 -68.5478 210° Southwest 407 468 36,000  Level Boston Center
Tue 02:28:58 PM 46.4492 -68.6467 210° Southwest 409 471 36,000  Level Boston Center
Tue 02:29:58 PM 46.3486 -68.7286 209° Southwest 412 474 36,000  Level Boston Center
Tue 02:31:02 PM 46.2458 -68.8111 209° Southwest 411 473 36,000  Level Boston Center
Tue 02:32:02 PM 46.1469 -68.8911 209° Southwest 410 472 36,000  Level Boston Center
Tue 02:33:02 PM 46.0489 -68.9714 210° Southwest 407 468 36,000  Level Boston Center
Tue 02:34:06 PM 45.9506 -69.0508 209° Southwest 406 467 36,000  Level Boston Center
Tue 02:35:06 PM 45.8517 -69.1311 209° Southwest 407 468 36,000  Level Boston Center
Tue 02:36:07 PM 45.7525 -69.2094 209° Southwest 409 471 36,000  Level Boston Center
Tue 02:37:07 PM 45.6533 -69.2886 209° Southwest 407 468 36,000  Level Boston Center
Tue 02:38:11 PM 45.5542 -69.3661 209° Southwest 406 467 36,000  Level Boston Center
Tue 02:39:11 PM 45.4553 -69.4447 209° Southwest 406 467 36,000  Level Boston Center
Tue 02:40:12 PM 45.3550 -69.5217 208° Southwest 408 470 36,000  Level Boston Center
Tue 02:41:15 PM 45.2367 -69.6156 209° Southwest 407 468 36,000  Level Boston Center
Tue 02:42:16 PM 45.1381 -69.6917 209° Southwest 407 468 36,000  Level Boston Center
Tue 02:43:16 PM 45.0403 -69.7675 209° Southwest 404 465 36,000  Level Boston Center
Tue 02:44:20 PM 44.9433 -69.8411 208° Southwest 401 461 36,000  Level Boston Center
Tue 02:45:21 PM 44.8450 -69.9164 208° Southwest 405 466 36,000  Level Boston Center
Tue 02:46:22 PM 44.7458 -69.9936 209° Southwest 409 471 36,000  Level Boston Center
Tue 02:47:22 PM 44.6464 -70.0703 209° Southwest 407 468 36,000  Level Boston Center
Tue 02:48:22 PM 44.5464 -70.1475 209° Southwest 409 471 36,000  Level Boston Center
Tue 02:49:26 PM 44.4250 -70.2381 208° Southwest 411 473 36,000  Level Boston Center
Tue 02:50:27 PM 44.3231 -70.3136 208° Southwest 413 475 36,000  Level Boston Center
Tue 02:51:27 PM 44.2233 -70.3903 209° Southwest 410 472 36,000  Level Boston Center
Tue 02:52:31 PM 44.1211 -70.4672 208° Southwest 415 478 36,000  Level Boston Center
Tue 02:53:31 PM 44.0206 -70.5419 208° Southwest 409 471 36,000  Level Boston Center
Tue 02:54:31 PM 43.9186 -70.6169 208° Southwest 411 473 36,000  Level Boston Center
Tue 02:55:35 PM 43.8172 -70.6900 207° Southwest 409 471 36,000  Level Boston Center
Tue 02:56:36 PM 43.7161 -70.7697 210° Southwest 413 475 36,000  Level Boston Center
Tue 02:57:37 PM 43.6061 -70.8489 208° Southwest 410 472 36,000  Level Boston Center
Tue 02:58:37 PM 43.5033 -70.9228 208° Southwest 415 478 36,000  Level Boston Center
Tue 02:59:41 PM 43.4019 -70.9975 208° Southwest 414 476 36,000  Level Boston Center
Tue 03:00:41 PM 43.2828 -71.0825 207° Southwest 416 479 36,000  Level Boston Center
Tue 03:01:42 PM 43.1806 -71.1581 208° Southwest 417 480 36,000  Level Boston Center
Tue 03:02:45 PM 43.0778 -71.2314 208° Southwest 418 481 36,000  Level Boston Center
Tue 03:03:46 PM 42.9747 -71.3053 208° Southwest 419 482 36,000  Level Boston Center
Tue 03:04:46 PM 42.8708 -71.3797 208° Southwest 422 486 36,000  Level Boston Center
Tue 03:05:50 PM 42.7664 -71.4533 207° Southwest 424 488 36,000  Level Boston Center
Tue 03:06:50 PM 42.6633 -71.5267 208° Southwest 421 484 36,000  Level Boston Center
Tue 03:07:54 PM 42.5506 -71.6069 208° Southwest 424 488 36,000  Level Boston Center
Tue 03:08:54 PM 42.4467 -71.6806 208° Southwest 423 487 36,000  Level Boston Center
Tue 03:09:56 PM 42.3411 -71.7528 207° Southwest 424 488 36,000  Level Boston Center
Tue 03:10:56 PM 42.2364 -71.8261 207° Southwest 424 488 36,000  Level Boston Center
Tue 03:11:58 PM 42.1311 -71.8983 207° Southwest 423 487 36,000  Level Boston Center
Tue 03:12:59 PM 42.0044 -71.9842 207° Southwest 424 488 36,000  Level Boston Center
Tue 03:14:02 PM 41.8994 -72.0572 207° Southwest 425 489 36,000  Level Boston Center
Tue 03:15:03 PM 41.7950 -72.1281 207° Southwest 423 487 36,000  Level Boston Center
Tue 03:17:08 PM 41.5858 -72.2700 207° Southwest 420 483 36,000  Level Boston Center
Tue 03:18:08 PM 41.4753 -72.3453 207° Southwest 420 483 36,000  Level Boston Center
Tue 03:19:10 PM 41.3722 -72.4169 208° Southwest 420 483 36,000  Level Boston Center
Tue 03:20:10 PM 41.2692 -72.4858 207° Southwest 417 480 36,000  Level Boston Center
Tue 03:21:11 PM 41.1783 -72.5681 214° Southwest 416 479 36,000  Level Boston Center
Tue 03:22:12 PM 41.0692 -72.6792 218° Southwest 413 475 36,000  Level Boston Center
Tue 03:23:16 PM 40.9756 -72.7697 216° Southwest 417 480 36,000  Level Boston Center
Tue 03:24:17 PM 40.8833 -72.8619 217° Southwest 417 480 36,000  Level Boston Center
Tue 03:25:17 PM 40.7883 -72.9533 216° Southwest 421 484 36,000  Level Boston Center
Tue 03:26:21 PM 40.6892 -73.0494 216° Southwest 422 486 36,000  Level Boston Center
Tue 03:27:21 PM 40.5947 -73.1403 216° Southwest 420 483 36,000  Level Boston Center
Tue 03:28:22 PM 40.5000 -73.2311 216° Southwest 421 484 36,000  Level Boston Center
Tue 03:29:23 PM 40.4047 -73.3217 216° Southwest 422 486 36,000  Level Boston Center
Tue 03:30:24 PM 40.3086 -73.4128 216° Southwest 425 489 36,000  Level Boston Center
Tue 03:31:25 PM 40.2119 -73.5056 216° Southwest 430 495 36,000  Level Boston Center
Tue 03:32:26 PM 40.1036 -73.6064 215° Southwest 435 501 36,000  Level Boston Center
Tue 03:33:30 PM 39.9944 -73.7103 216° Southwest 440 506 36,000  Level Boston Center
Tue 03:34:30 PM 39.8936 -73.8039 215° Southwest 444 511 36,000  Level Boston Center
Tue 03:35:34 PM 39.7922 -73.8989 216° Southwest 447 514 36,000  Level Boston Center
Tue 03:36:34 PM 39.6906 -73.9947 216° Southwest 451 519 36,000  Level Boston Center
Tue 03:37:34 PM 39.5864 -74.0903 215° Southwest 457 526 36,000  Level Boston Center
Tue 03:38:36 PM 39.4806 -74.1875 215° Southwest 461 531 36,000  Level Boston Center
Tue 03:39:37 PM 39.3753 -74.2828 215° Southwest 462 532 36,000  Level Boston Center
Tue 03:40:49 PM 39.2408 -74.4072 216° Southwest 467 537 36,000  Level Washington Center
Tue 03:41:47 PM 39.1356 -74.5025 215° Southwest 467 537 36,000  Level Washington Center
Tue 03:42:48 PM 39.0342 -74.5975 216° Southwest 467 537 36,000  Level Washington Center
Tue 03:43:49 PM 38.9286 -74.6897 214° Southwest 467 537 36,000  Level Washington Center
Tue 03:44:47 PM 38.8272 -74.7842 216° Southwest 467 537 36,000  Level Washington Center
Tue 03:45:48 PM 38.7214 -74.8678 212° Southwest 467 537 36,000  Level Washington Center
Tue 03:46:48 PM 38.6114 -74.9514 211° Southwest 467 537 36,000  Level Washington Center
Tue 03:47:49 PM 38.4992 -75.0292 208° Southwest 467 537 36,000  Level Washington Center
Tue 03:48:49 PM 38.3889 -75.1122 211° Southwest 461 531 36,000  Level Washington Center
Tue 03:49:47 PM 38.2808 -75.1950 211° Southwest 461 531 36,000  Level Washington Center
Tue 03:50:48 PM 38.1728 -75.2747 210° Southwest 461 531 36,000  Level Washington Center
Tue 03:51:49 PM 38.0622 -75.3492 208° Southwest 461 531 36,000  Level Washington Center
Tue 03:52:49 PM 37.9542 -75.4311 211° Southwest 461 531 36,000  Level Washington Center
Tue 03:53:47 PM 37.8456 -75.5075 209° Southwest 461 531 36,000  Level Washington Center
Tue 03:54:48 PM 37.7372 -75.5892 211° Southwest 461 531 36,000  Level Washington Center
Tue 03:55:49 PM 37.6267 -75.6625 208° Southwest 461 531 36,000  Level Washington Center
Tue 03:56:47 PM 37.5181 -75.7411 210° Southwest 461 531 36,000  Level Washington Center
Tue 03:57:48 PM 37.4033 -75.8219 209° Southwest 466 536 36,000  Level Washington Center
Tue 03:58:49 PM 37.2925 -75.9000 209° Southwest 466 536 36,000  Level Washington Center
Tue 03:59:47 PM 37.1778 -75.9803 209° Southwest 466 536 36,000  Level Washington Center
Tue 04:00:48 PM 37.0669 -76.0578 209° Southwest 466 536 36,000  Level Washington Center
Tue 04:01:49 PM 36.9603 -76.1247 207° Southwest 471 542 36,000  Level Washington Center
Tue 04:02:49 PM 36.8472 -76.2044 209° Southwest 478 550 36,000  Level Washington Center
Tue 04:03:47 PM 36.7342 -76.2814 209° Southwest 478 550 36,000  Level Washington Center
Tue 04:04:48 PM 36.6208 -76.3631 210° Southwest 478 550 36,000  Level Washington Center
Tue 04:05:49 PM 36.5056 -76.4422 209° Southwest 478 550 36,000  Level Washington Center
Tue 04:06:47 PM 36.3903 -76.5208 209° Southwest 478 550 36,000  Level Washington Center
Tue 04:07:48 PM 36.2750 -76.5994 209° Southwest 478 550 36,000  Level Washington Center
Tue 04:08:49 PM 36.1594 -76.6725 207° Southwest 478 550 36,000  Level Washington Center
Tue 04:09:49 PM 36.0461 -76.7531 210° Southwest 478 550 36,000  Level Washington Center
Tue 04:10:47 PM 35.9286 -76.8308 208° Southwest 478 550 36,000  Level Washington Center
Tue 04:11:48 PM 35.8172 -76.9061 209° Southwest 473 544 36,000  Level Washington Center
Tue 04:12:49 PM 35.7036 -76.9836 209° Southwest 473 544 36,000  Level Washington Center
Tue 04:13:49 PM 35.5836 -77.0656 209° Southwest 458 527 36,000  Level Washington Center
Tue 04:14:47 PM 35.4700 -77.1428 209° Southwest 464 534 36,000  Level Washington Center
Tue 04:15:47 PM 35.3542 -77.2169 208° Southwest 464 534 36,000  Level Washington Center
Tue 04:16:48 PM 35.2428 -77.2908 208° Southwest 464 534 36,000  Level Washington Center
Tue 04:17:48 PM 35.1289 -77.3672 209° Southwest 464 534 36,000  Level Washington Center
Tue 04:18:49 PM 35.0131 -77.4433 208° Southwest 464 534 36,000  Level Washington Center
Tue 04:19:47 PM 34.8969 -77.5167 207° Southwest 464 534 36,000  Level Washington Center
Tue 04:20:47 PM 34.7956 -77.5900 211° Southwest 464 534 36,000  Level Washington Center
Tue 04:21:48 PM 34.6839 -77.6631 208° Southwest 464 534 36,000  Level Washington Center
Tue 04:22:49 PM 34.5700 -77.7358 208° Southwest 464 534 36,000  Level Washington Center
Tue 04:23:49 PM 34.4558 -77.8111 209° Southwest 464 534 36,000  Level Washington Center
Tue 04:24:47 PM 34.3397 -77.8808 206° Southwest 464 534 36,000  Level Washington Center
Tue 04:25:47 PM 34.1867 -77.9217 192° South 511 588 36,000  Level Washington Center
Tue 04:27:54 PM 33.9167 -77.9978 193° South 506 582 36,000  Level Jacksonville Center
Tue 04:28:54 PM 33.7847 -78.0378 194° South 500 575 36,000  Level Jacksonville Center
Tue 04:29:55 PM 33.6361 -78.0808 194° South 500 575 36,000  Level Jacksonville Center
Tue 04:30:54 PM 33.5039 -78.1178 193° South 505 581 36,000  Level Jacksonville Center
Tue 04:31:54 PM 33.3719 -78.1547 193° South 500 575 36,000  Level Jacksonville Center
Tue 04:32:55 PM 33.2419 -78.1939 194° South 495 570 36,000  Level Jacksonville Center
Tue 04:33:54 PM 33.1094 -78.2281 192° South 490 564 36,000  Level Jacksonville Center
Tue 04:34:54 PM 32.9775 -78.2672 194° South 490 564 36,000  Level Jacksonville Center
Tue 04:35:55 PM 32.8453 -78.3036 193° South 490 564 36,000  Level Jacksonville Center
Tue 04:36:54 PM 32.7131 -78.3400 193° South 490 564 36,000  Level Jacksonville Center
Tue 04:37:54 PM 32.5808 -78.3786 194° South 490 564 36,000  Level Jacksonville Center
Tue 04:38:55 PM 32.4464 -78.4125 192° South 490 564 36,000  Level Jacksonville Center
Tue 04:39:55 PM 32.3308 -78.4525 196° South 490 564 36,000  Level Jacksonville Center
Tue 04:40:54 PM 32.2006 -78.4883 193° South 490 564 36,000  Level Jacksonville Center
Tue 04:41:54 PM 32.0664 -78.5292 194° South 490 564 36,000  Level Jacksonville Center
Tue 04:42:54 PM 31.9361 -78.5669 194° South 490 564 36,000  Level Jacksonville Center
Tue 04:43:54 PM 31.8100 -78.6022 193° South 485 558 36,000  Level Jacksonville Center
Tue 04:44:55 PM 31.6797 -78.6425 195° South 480 552 36,000  Level Jacksonville Center
Tue 04:45:54 PM 31.5517 -78.6775 193° South 480 552 36,000  Level Jacksonville Center
Tue 04:46:54 PM 31.4253 -78.7125 193° South 480 552 36,000  Level Jacksonville Center
Tue 04:47:55 PM 31.2992 -78.7497 194° South 475 547 36,000  Level Jacksonville Center
Tue 04:48:55 PM 31.1689 -78.7847 193° South 475 547 36,000  Level Jacksonville Center
Tue 04:49:55 PM 31.0364 -78.8219 194° South 475 547 36,000  Level Jacksonville Center
Tue 04:50:55 PM 30.9019 -78.8617 194° South 488 562 36,000  Level Jacksonville Center
Tue 04:52:26 PM 30.6906 -78.9197 193° South 484 557 36,000  Level Miami Center
Tue 04:53:26 PM 30.5567 -78.9581 194° South 492 566 36,000  Level Miami Center
Tue 04:54:26 PM 30.4289 -78.9964 195° South 486 559 36,000  Level Miami Center
Tue 04:55:26 PM 30.2989 -79.0489 199° South 491 565 36,000  Level Miami Center
Tue 04:56:26 PM 30.1669 -79.0869 194° South 491 565 36,000  Level Miami Center
Tue 04:57:26 PM 30.0311 -79.1178 191° South 496 571 36,000  Level Miami Center
Tue 04:58:26 PM 29.9178 -79.1561 196° South 490 564 36,000  Level Miami Center
Tue 04:59:26 PM 29.7819 -79.1819 189° South 490 564 36,000  Level Miami Center
Tue 05:00:26 PM 29.6519 -79.2197 194° South 490 564 36,000  Level Miami Center
Tue 05:01:26 PM 29.5119 -79.2428 188° South 493 567 36,000  Level Miami Center
Tue 05:02:26 PM 29.3717 -79.2756 192° South 493 567 36,000  Level Miami Center
Tue 05:03:26 PM 29.2375 -79.3033 190° South 487 560 36,000  Level Miami Center
Tue 05:04:26 PM 29.1097 -79.3458 196° South 481 554 36,000  Level Miami Center
Tue 05:05:26 PM 28.9856 -79.3975 200° South 481 554 36,000  Level Miami Center
Tue 05:06:26 PM 28.8636 -79.4469 200° South 481 554 36,000  Level Miami Center
Tue 05:07:26 PM 28.7397 -79.4983 200° South 476 548 36,000  Level Miami Center
Tue 05:08:26 PM 28.6156 -79.5500 200° South 476 548 36,000  Level Miami Center
Tue 05:09:26 PM 28.4894 -79.5989 199° South 476 548 36,000  Level Miami Center
Tue 05:10:26 PM 28.3675 -79.6478 199° South 476 548 36,000  Level Miami Center
Tue 05:11:26 PM 28.2433 -79.6989 200° South 476 548 36,000  Level Miami Center
Tue 05:12:26 PM 28.1192 -79.7500 200° South 476 548 36,000  Level Miami Center
Tue 05:13:26 PM 27.9950 -79.8008 200° South 476 548 36,000  Level Miami Center
Tue 05:14:26 PM 27.8728 -79.8494 199° South 476 548 36,000  Level Miami Center
Tue 05:15:26 PM 27.7508 -79.9003 200° South 469 540 36,000  Level Miami Center
Tue 05:16:26 PM 27.6244 -79.9508 200° South 474 545 36,000  Level Miami Center
Tue 05:17:26 PM 27.5000 -80.0011 200° South 474 545 36,000  Level Miami Center
Tue 05:18:26 PM 27.3781 -80.0494 199° South 474 545 36,000  Level Miami Center
Tue 05:19:26 PM 27.2517 -80.0994 199° South 474 545 36,000  Level Miami Center
Tue 05:20:26 PM 27.1272 -80.1497 200° South 474 545 36,000  Level Miami Center
Tue 05:21:26 PM 27.0028 -80.2000 200° South 474 545 36,000  Level Miami Center
Tue 05:22:26 PM 26.8806 -80.2475 199° South 474 545 36,000  Level Miami Center
Tue 05:23:26 PM 26.7606 -80.2975 200° South 474 545 36,000  Level Miami Center
Tue 05:24:26 PM 26.6339 -80.3472 199° South 474 545 36,000  Level Miami Center
Tue 05:25:26 PM 26.5117 -80.3972 200° South 474 545 36,000  Level Miami Center
Tue 05:26:26 PM 26.3831 -80.4467 199° South 474 545 36,000  Level Miami Center
Tue 05:27:26 PM 26.2586 -80.4961 200° South 474 545 36,000  Level Miami Center
Tue 05:28:26 PM 26.1511 -80.5392 200° South 474 545 36,000  Level Miami Center
Tue 05:29:26 PM 26.0117 -80.5950 200° South 474 545 36,000  Level Miami Center
Tue 05:30:26 PM 25.8931 -80.6581 206° Southwest 474 545 36,000  Level Miami Center
Tue 05:31:26 PM 25.7989 -80.7497 221° Southwest 461 531 36,000  Level Miami Center
Tue 05:32:26 PM 25.7044 -80.8458 223° Southwest 461 531 36,000  Level Miami Center
Tue 05:33:26 PM 25.6119 -80.9372 222° Southwest 461 531 36,000  Level Miami Center
Tue 05:34:26 PM 25.5153 -81.0331 222° Southwest 461 531 36,000  Level Miami Center
Tue 05:35:26 PM 25.4208 -81.1264 222° Southwest 461 531 36,000  Level Miami Center
Tue 05:36:26 PM 25.3283 -81.2219 223° Southwest 455 524 36,000  Level Miami Center
Tue 05:37:26 PM 25.2336 -81.3125 221° Southwest 455 524 36,000  Level Miami Center
Tue 05:38:26 PM 25.1367 -81.4100 222° Southwest 455 524 36,000 -150 Level Miami Center
Tue 05:39:26 PM 25.0439 -81.5028 222° Southwest 461 531 35,700 -600 Descending Miami Center
Tue 05:40:26 PM 24.9533 -81.5933 222° Southwest 454 522 34,800 -900 Descending Miami Center
Tue 05:41:26 PM 24.8717 -81.6703 221° Southwest 443 510 33,900 -1,050 Descending Miami Center
Tue 05:42:26 PM 24.7850 -81.7583 223° Southwest 436 502 32,700 -1,200 Descending Miami Center
Tue 05:43:26 PM 24.6900 -81.8553 223° Southwest 430 495 31,500 -1,100 Descending Miami Center
Tue 05:44:26 PM 24.6017 -81.9383 221° Southwest 425 489 30,500 -1,050 Descending Miami Center
Tue 05:45:26 PM 24.5131 -82.0192 220° Southwest 420 483 29,400 -1,050 Descending Miami Center
Tue 05:46:26 PM 24.4308 -82.1025 223° Southwest 420 483 28,400 -950 Descending Miami Center
Tue 05:47:26 PM 24.3467 -82.1808 220° Southwest 415 478 27,500 -900 Descending Miami Center
Tue 05:48:26 PM 24.2644 -82.2639 223° Southwest 415 478 26,600 -1,350 Descending Miami Center
Tue 05:49:26 PM 24.1781 -82.3422 220° Southwest 403 464 24,800 -1,750 Descending Miami Center
Tue 05:50:26 PM 24.0997 -82.4253 224° Southwest 397 457 23,100 -1,700 Descending Miami Center
Tue 05:52:00 PM 23.9567 -82.5105 173° South  Level FlightAware Approximate
Tue 05:59:00 PM 23.1428 -82.4167 180° South  Level FlightAware Approximate
Tue 06:00:00 PM 23.0271 -82.4000 180° South  Level FlightAware Approximate
Tue 06:01:00 PM 22.9891 -82.4091 180° South  Level Estimated
Tue 06:02:00 PM 22.9891 -82.4091 180° South  Level Estimated
Tue 06:03:00 PM 22.9891 -82.4091 180° South  Level Estimated
Tue 06:04:00 PM 22.9891 -82.4091 180° South  Level Estimated
Tue 06:05:00 PM 22.9891 -82.4091 180° South  Level Estimated
Tue 06:06:00 PM 22.9891 -82.4091 180° South  Level Estimated
Tue 06:07:00 PM 22.9891 -82.4091 180° South  Level Estimated
Tue 06:08:00 PM 22.9891 -82.4091 180° South  Level Estimated
Tue 06:09:00 PM 22.9891 -82.4091 180° South  Level Estimated
Tue 06:10:00 PM 22.9891 -82.4091 180° South  Level Estimated
Tue 06:11:00 PM 22.9891 -82.4091 180° South  Level Estimated
Tue 06:12:00 PM 22.9891 -82.4091 180° South  Level Estimated
Tue 06:13:00 PM 22.9891 -82.4091 180° South  Level Estimated
Tue 06:14:00 PM 22.9891 -82.4091 180° South  Level Estimated
Tue 06:15:00 PM 22.9891 -82.4091 180° South  Level Estimated
Tue 06:16:00 PM 22.9891 -82.4091 180° South  Level Estimated
Tue 06:17:00 PM 22.9891 -82.4091 180° South  Level Estimated
Tue 06:18:00 PM 22.9891 -82.4091 180° South  Level Estimated
Tue 06:19:00 PM 22.9891 -82.4091 180° South  Level Estimated
Tue 06:20:00 PM 22.9891 -82.4091 180° South  Level Estimated
Tue 06:21:00 PM 22.9891 -82.4091 180° South  Level Estimated
Tue 06:22:00 PM 22.9891 -82.4091 180° South  Level Estimated

Login

Don't have an account? Register now (free) for customized features, flight alerts, and more!